Hlavní strana
METAR-TAF:

METAR-TAF

Letiště :

Kassel, Německo

zeměpisná šířka: 51-24N, zeměpisná délka: 009-23E, výška: 277 m

Aktuální stav počasí

Zpráva byla vytvořena před 30 minutami, v 10:20 UTC
Jihovýchodní vítr 6 kt
Teplota 20°C
Vlhkost vzduchu 49%
Tlak 1014 hPa
Viditelnost 10 km a více
Žádná oblačnost pod 1500 m, nevyskytují se cumulonimby.

METAR: EDVK 151020Z 13006KT CAVOK 20/09 Q1014

Čas: 12:50 (10:50 UTC)

Předpověď počasí

Zpráva byla vytvořena před 2 hodinami a 50 minutami, v 08:00 UTC
Předpověď platná od 15 v 09 UTC do 15 v 18 UTC
Východojihovýchodní vítr 5 kt
Viditelnost 10 km a více
Žádná oblačnost pod 1500 m, nevyskytují se cumulonimby.

TAF: EDVK 150800Z 1509/1518 12005KT CAVOK

Stav a předpovědi počasí z více než 4 000 letišť (zprávy METAR a TAF).

Červené a žluté tečky na mapě představují dostupné meteorologické stanice.

Když kurzor umístíte na tečku, zobrazí se název stanice.

Pak kliknutím zobrazíte stav a předpověď počasí.

Chcete-li změnit mapu, kliknutím na zelené tlačítko se znaménkem +mapu přiblížíte, kliknutím na zelené tlačítko se znaménkem – mapu oddálíte a kliknutím na zelené šipky přejdete na sousední mapy.


METAR-TAF: